Time;durP1;ratioP1;P1;durP2;ratioP2;P2;SDS_P1;SDS_P2;PMS_P1;PMS_P2;Temp;Humidity;BMP_temperature;BMP_pressure;BME280_temperature;BME280_humidity;BME280_pressure;Samples;Min_cycle;Max_cycle;Signal;HPM_P1;HPM_P2
2022/07/20 00:00:56;;;;;;;6.97;2.15;;;;;;;;;;3353709;42;20498;-58
2022/07/20 00:03:22;;;;;;;5.40;1.97;;;;;;;;;;3351368;42;20505;-59
2022/07/20 00:05:48;;;;;;;8.40;2.10;;;;;;;;;;3353824;42;20088;-59
2022/07/20 00:11:19;;;;;;;5.00;2.00;;;;;;;;;;3349346;42;20089;-59
2022/07/20 00:13:44;;;;;;;4.93;1.95;;;;;;;;;;3350595;42;20618;-58
2022/07/20 00:16:10;;;;;;;6.43;1.95;;;;;;;;;;3353236;42;20140;-58
2022/07/20 00:18:36;;;;;;;6.28;1.90;;;;;;;;;;3354353;42;20095;-58
2022/07/20 00:21:02;;;;;;;6.63;2.20;;;;;;;;;;3349829;42;20514;-60
2022/07/20 00:23:28;;;;;;;4.82;1.90;;;;;;;;;;3355229;42;20081;-59
2022/07/20 00:25:53;;;;;;;5.88;1.95;;;;;;;;;;3350272;42;20085;-59
2022/07/20 00:28:19;;;;;;;8.20;2.90;;;;;;;;;;3356097;42;20154;-61
2022/07/20 00:30:46;;;;;;;10.13;2.40;;;;;;;;;;3359044;42;20292;-57
2022/07/20 00:33:12;;;;;;;8.00;2.00;;;;;;;;;;3350616;42;20096;-56
2022/07/20 00:35:38;;;;;;;6.00;1.95;;;;;;;;;;3354946;42;20084;-57
2022/07/20 00:38:05;;;;;;;5.90;2.00;;;;;;;;;;3356625;42;20088;-59
2022/07/20 00:40:30;;;;;;;6.00;2.20;;;;;;;;;;3356517;42;20097;-58
2022/07/20 00:42:56;;;;;;;6.85;1.80;;;;;;;;;;3354925;42;20170;-58
2022/07/20 00:45:22;;;;;;;4.80;1.80;;;;;;;;;;3356677;42;20088;-57
2022/07/20 00:47:48;;;;;;;6.05;2.08;;;;;;;;;;3350546;42;20085;-57
2022/07/20 00:50:14;;;;;;;5.40;2.20;;;;;;;;;;3354977;42;20558;-57
2022/07/20 00:52:40;;;;;;;6.10;2.10;;;;;;;;;;3355578;42;20107;-58
2022/07/20 00:55:07;;;;;;;6.22;2.00;;;;;;;;;;3358934;42;20641;-58
2022/07/20 00:57:33;;;;;;;8.30;2.00;;;;;;;;;;3345282;42;20142;-58
2022/07/20 00:59:59;;;;;;;6.67;1.90;;;;;;;;;;3353430;42;20113;-59
2022/07/20 01:02:25;;;;;;;6.68;2.03;;;;;;;;;;3346860;42;20502;-59
2022/07/20 01:04:51;;;;;;;8.07;2.20;;;;;;;;;;3354976;42;20092;-59
2022/07/20 01:07:17;;;;;;;5.53;1.90;;;;;;;;;;3352346;42;20093;-59
2022/07/20 01:09:44;;;;;;;6.10;1.75;;;;;;;;;;3345765;42;20131;-60
2022/07/20 01:12:10;;;;;;;5.37;1.80;;;;;;;;;;3355401;42;20085;-58
2022/07/20 01:14:36;;;;;;;6.00;1.90;;;;;;;;;;3351465;42;20156;-60
2022/07/20 01:17:02;;;;;;;6.63;2.08;;;;;;;;;;3355115;42;20092;-58
2022/07/20 01:19:28;;;;;;;5.63;1.90;;;;;;;;;;3353697;42;20092;-62
2022/07/20 01:21:54;;;;;;;5.85;1.75;;;;;;;;;;3348615;42;20140;-61
2022/07/20 01:24:20;;;;;;;6.03;2.00;;;;;;;;;;3355674;42;20088;-60
2022/07/20 01:26:46;;;;;;;7.35;1.90;;;;;;;;;;3354076;42;20099;-59
2022/07/20 01:29:13;;;;;;;6.15;1.90;;;;;;;;;;3353825;42;20555;-62
2022/07/20 01:31:39;;;;;;;5.00;1.90;;;;;;;;;;3354983;42;20107;-58
2022/07/20 01:34:05;;;;;;;4.80;1.90;;;;;;;;;;3346195;42;20546;-60
2022/07/20 01:36:31;;;;;;;7.05;2.00;;;;;;;;;;3353583;42;20593;-59
2022/07/20 01:38:57;;;;;;;6.55;2.10;;;;;;;;;;3353605;42;20103;-61
2022/07/20 01:41:23;;;;;;;6.13;1.90;;;;;;;;;;3356901;42;20593;-60
2022/07/20 01:43:49;;;;;;;7.05;2.35;;;;;;;;;;3341216;42;20103;-72
2022/07/20 01:46:15;;;;;;;6.60;2.13;;;;;;;;;;3352053;42;20215;-59
2022/07/20 01:48:41;;;;;;;6.65;1.90;;;;;;;;;;3354998;42;20097;-60
2022/07/20 01:51:07;;;;;;;5.80;1.88;;;;;;;;;;3350477;42;20101;-58
2022/07/20 01:53:33;;;;;;;6.05;2.08;;;;;;;;;;3353817;42;20568;-57
2022/07/20 01:55:59;;;;;;;6.83;2.10;;;;;;;;;;3344900;42;20085;-59
2022/07/20 01:58:25;;;;;;;6.75;2.05;;;;;;;;;;3353680;42;20106;-59
2022/07/20 02:00:51;;;;;;;5.97;1.90;;;;;;;;;;3351963;42;20080;-59
2022/07/20 02:03:17;;;;;;;6.70;2.07;;;;;;;;;;3353861;42;20171;-59
2022/07/20 02:05:43;;;;;;;4.70;1.73;;;;;;;;;;3354810;42;20510;-59
2022/07/20 02:08:09;;;;;;;7.50;1.92;;;;;;;;;;3353273;42;20574;-58
2022/07/20 02:10:35;;;;;;;5.82;1.83;;;;;;;;;;3349381;42;20096;-58
2022/07/20 02:13:01;;;;;;;5.40;2.03;;;;;;;;;;3355824;42;20107;-59
2022/07/20 02:18:12;;;;;;;8.43;2.10;;;;;;;;;;3353358;42;20556;-58
2022/07/20 02:20:38;;;;;;;5.03;1.88;;;;;;;;;;3358050;42;20163;-57
2022/07/20 02:23:05;;;;;;;11.60;2.20;;;;;;;;;;3352843;42;20148;-62
2022/07/20 02:25:31;;;;;;;5.40;1.80;;;;;;;;;;3353079;42;20088;-59
2022/07/20 02:27:57;;;;;;;5.67;2.00;;;;;;;;;;3347024;42;20127;-59
2022/07/20 02:30:23;;;;;;;6.25;1.83;;;;;;;;;;3354783;42;20510;-59
2022/07/20 02:32:49;;;;;;;5.50;2.00;;;;;;;;;;3344992;42;20092;-60
2022/07/20 02:35:15;;;;;;;7.60;2.15;;;;;;;;;;3350250;42;20147;-60
2022/07/20 02:37:41;;;;;;;5.20;1.90;;;;;;;;;;3349310;42;20156;-59
2022/07/20 02:40:08;;;;;;;4.70;1.90;;;;;;;;;;3345872;42;20101;-60
2022/07/20 02:42:34;;;;;;;4.70;1.90;;;;;;;;;;3353454;42;20575;-56
2022/07/20 02:45:00;;;;;;;9.00;2.42;;;;;;;;;;3353096;42;20601;-59
2022/07/20 02:47:26;;;;;;;4.93;1.60;;;;;;;;;;3352958;42;20577;-58
2022/07/20 02:49:51;;;;;;;6.40;1.80;;;;;;;;;;3357565;42;20096;-59
2022/07/20 02:52:17;;;;;;;7.10;1.75;;;;;;;;;;3352469;42;20681;-59
2022/07/20 02:54:43;;;;;;;5.85;1.65;;;;;;;;;;3352902;42;20089;-59
2022/07/20 02:57:09;;;;;;;5.47;1.83;;;;;;;;;;3355322;42;20167;-59
2022/07/20 02:59:35;;;;;;;9.40;2.15;;;;;;;;;;3349305;42;20131;-58
2022/07/20 03:02:01;;;;;;;5.60;1.80;;;;;;;;;;3340608;42;20552;-58
2022/07/20 03:04:27;;;;;;;4.97;1.57;;;;;;;;;;3351709;42;20574;-59
2022/07/20 03:06:53;;;;;;;5.53;1.83;;;;;;;;;;3350633;42;20547;-58
2022/07/20 03:09:19;;;;;;;6.30;1.75;;;;;;;;;;3354304;42;20597;-58
2022/07/20 03:11:45;;;;;;;6.77;2.10;;;;;;;;;;3347949;42;20606;-58
2022/07/20 03:14:10;;;;;;;5.32;1.73;;;;;;;;;;3352749;42;20107;-57
2022/07/20 03:16:36;;;;;;;6.38;1.65;;;;;;;;;;3351246;42;20616;-58
2022/07/20 03:19:02;;;;;;;5.57;1.50;;;;;;;;;;3337629;42;20103;-60
2022/07/20 03:21:28;;;;;;;5.47;1.80;;;;;;;;;;3357581;42;20084;-58
2022/07/20 03:23:54;;;;;;;7.40;1.80;;;;;;;;;;3358457;42;20092;-59
2022/07/20 03:26:21;;;;;;;7.68;1.60;;;;;;;;;;3354325;42;20108;-58
2022/07/20 03:28:47;;;;;;;7.35;1.90;;;;;;;;;;3352822;42;20084;-58
2022/07/20 03:31:13;;;;;;;4.63;1.60;;;;;;;;;;3354162;42;20163;-57
2022/07/20 03:33:39;;;;;;;5.07;1.45;;;;;;;;;;3355240;42;20115;-57
2022/07/20 03:36:05;;;;;;;5.57;1.55;;;;;;;;;;3354251;42;20101;-56
2022/07/20 03:38:31;;;;;;;6.78;1.40;;;;;;;;;;3354796;42;20242;-58
2022/07/20 03:40:57;;;;;;;6.00;1.53;;;;;;;;;;3348932;42;20570;-56
2022/07/20 03:43:25;;;;;;;5.77;1.40;;;;;;;;;;3355275;42;20310;-58
2022/07/20 03:45:53;;;;;;;6.07;1.48;;;;;;;;;;3352045;42;20089;-56
2022/07/20 03:48:19;;;;;;;4.90;1.35;;;;;;;;;;3351647;42;20106;-57
2022/07/20 03:50:46;;;;;;;5.78;1.50;;;;;;;;;;3352258;42;20100;-58
2022/07/20 03:53:13;;;;;;;7.00;1.50;;;;;;;;;;3351381;42;20215;-55
2022/07/20 03:55:39;;;;;;;5.30;1.50;;;;;;;;;;3346247;42;20112;-56
2022/07/20 03:58:05;;;;;;;5.22;1.60;;;;;;;;;;3351955;42;20115;-58
2022/07/20 04:00:31;;;;;;;4.80;1.55;;;;;;;;;;3353557;42;20467;-58
2022/07/20 04:02:57;;;;;;;5.47;1.40;;;;;;;;;;3350542;42;20652;-58
2022/07/20 04:05:23;;;;;;;6.72;1.40;;;;;;;;;;3352476;42;20096;-58
2022/07/20 04:07:49;;;;;;;5.60;1.60;;;;;;;;;;3335470;42;20157;-57
2022/07/20 04:10:15;;;;;;;5.93;1.60;;;;;;;;;;3348890;42;20103;-57
2022/07/20 04:12:41;;;;;;;4.80;1.40;;;;;;;;;;3353732;42;20084;-56
2022/07/20 04:15:07;;;;;;;5.70;1.48;;;;;;;;;;3338900;42;20084;-54
2022/07/20 04:17:33;;;;;;;7.03;1.75;;;;;;;;;;3355080;42;20191;-48
2022/07/20 04:19:59;;;;;;;5.45;1.50;;;;;;;;;;3344802;42;20100;-52
2022/07/20 04:22:25;;;;;;;7.50;1.53;;;;;;;;;;3352221;42;20076;-53
2022/07/20 04:24:51;;;;;;;5.43;1.52;;;;;;;;;;3352196;42;20100;-53
2022/07/20 04:27:17;;;;;;;4.72;1.35;;;;;;;;;;3352927;42;20104;-53
2022/07/20 04:29:43;;;;;;;5.22;1.60;;;;;;;;;;3354448;42;20099;-55
2022/07/20 04:32:09;;;;;;;5.80;1.47;;;;;;;;;;3349601;42;20554;-53
2022/07/20 04:34:35;;;;;;;5.55;1.77;;;;;;;;;;3351873;42;20107;-51
2022/07/20 04:37:01;;;;;;;4.47;1.60;;;;;;;;;;3352608;42;20096;-51
2022/07/20 04:39:27;;;;;;;5.68;1.40;;;;;;;;;;3353736;42;20687;-51
2022/07/20 04:41:53;;;;;;;6.72;1.60;;;;;;;;;;3355847;42;20097;-51
2022/07/20 04:44:19;;;;;;;4.30;1.40;;;;;;;;;;3351684;42;20088;-54
2022/07/20 04:46:45;;;;;;;7.47;1.45;;;;;;;;;;3353365;42;20242;-54
2022/07/20 04:49:11;;;;;;;4.10;1.40;;;;;;;;;;3355024;42;20099;-57
2022/07/20 04:51:37;;;;;;;5.43;1.60;;;;;;;;;;3349840;42;20103;-58
2022/07/20 04:54:03;;;;;;;6.70;1.60;;;;;;;;;;3350252;42;20136;-58
2022/07/20 04:56:29;;;;;;;4.55;1.55;;;;;;;;;;3353771;42;20215;-56
2022/07/20 04:58:55;;;;;;;5.85;1.58;;;;;;;;;;3352415;42;20105;-55
2022/07/20 05:01:24;;;;;;;7.40;2.25;;;;;;;;;;3345219;42;20110;-56
2022/07/20 05:03:50;;;;;;;11.40;4.00;;;;;;;;;;3356498;42;20084;-57
2022/07/20 05:06:16;;;;;;;5.53;2.20;;;;;;;;;;3351185;42;20513;-57
2022/07/20 05:08:42;;;;;;;5.70;1.80;;;;;;;;;;3354104;42;20092;-57
2022/07/20 05:11:08;;;;;;;4.88;1.70;;;;;;;;;;3353401;42;20088;-55
2022/07/20 05:13:34;;;;;;;4.43;1.80;;;;;;;;;;3358887;42;20089;-57
2022/07/20 05:16:00;;;;;;;5.87;1.50;;;;;;;;;;3354194;42;20621;-54
2022/07/20 05:18:28;;;;;;;5.03;1.40;;;;;;;;;;3355586;42;20088;-58
2022/07/20 05:20:54;;;;;;;6.35;1.58;;;;;;;;;;3353269;42;20126;-56
2022/07/20 05:23:20;;;;;;;4.18;1.40;;;;;;;;;;3356793;42;20531;-56
2022/07/20 05:25:46;;;;;;;3.90;1.20;;;;;;;;;;3355571;42;20092;-56
2022/07/20 05:28:14;;;;;;;5.68;1.58;;;;;;;;;;3354504;42;20103;-57
2022/07/20 05:30:40;;;;;;;6.50;1.50;;;;;;;;;;3350514;42;20101;-57
2022/07/20 05:33:06;;;;;;;4.57;1.55;;;;;;;;;;3347163;42;20618;-58
2022/07/20 05:35:31;;;;;;;3.67;1.20;;;;;;;;;;3354078;42;20080;-57
2022/07/20 05:37:58;;;;;;;5.53;1.50;;;;;;;;;;3351705;42;20165;-58
2022/07/20 05:40:24;;;;;;;4.40;1.35;;;;;;;;;;3354147;42;20096;-57
2022/07/20 05:42:49;;;;;;;5.30;1.30;;;;;;;;;;3350037;42;20088;-57
2022/07/20 05:45:15;;;;;;;5.63;1.27;;;;;;;;;;3349403;42;20095;-55
2022/07/20 05:47:41;;;;;;;4.43;1.20;;;;;;;;;;3357923;42;20155;-58
2022/07/20 05:50:08;;;;;;;6.00;1.35;;;;;;;;;;3353919;42;20590;-58
2022/07/20 05:52:34;;;;;;;5.53;1.60;;;;;;;;;;3356828;42;20143;-57
2022/07/20 05:55:00;;;;;;;7.83;1.37;;;;;;;;;;3342491;42;20557;-59
2022/07/20 05:57:26;;;;;;;4.35;1.38;;;;;;;;;;3358065;42;20096;-59
2022/07/20 05:59:52;;;;;;;4.72;1.17;;;;;;;;;;3360325;42;20099;-59
2022/07/20 06:02:18;;;;;;;5.67;1.40;;;;;;;;;;3360034;42;20087;-59
2022/07/20 06:04:44;;;;;;;4.65;1.00;;;;;;;;;;3363300;42;20558;-58
2022/07/20 06:07:10;;;;;;;7.18;1.40;;;;;;;;;;3363829;42;20091;-58
2022/07/20 06:09:36;;;;;;;4.57;1.10;;;;;;;;;;3362600;42;20140;-57
2022/07/20 06:12:02;;;;;;;3.90;1.00;;;;;;;;;;3361476;42;20091;-55
2022/07/20 06:14:28;;;;;;;3.45;1.20;;;;;;;;;;3361272;42;20126;-57
2022/07/20 06:16:54;;;;;;;5.90;1.30;;;;;;;;;;3360775;42;20092;-57
2022/07/20 06:19:20;;;;;;;3.88;1.30;;;;;;;;;;3344592;42;20114;-56
2022/07/20 06:21:46;;;;;;;4.07;1.40;;;;;;;;;;3361259;42;20111;-58
2022/07/20 06:24:14;;;;;;;5.15;1.40;;;;;;;;;;3357069;42;20115;-59
2022/07/20 06:26:40;;;;;;;6.38;1.52;;;;;;;;;;3360456;42;20100;-57
2022/07/20 06:29:06;;;;;;;4.50;1.10;;;;;;;;;;3357871;42;20104;-56
2022/07/20 06:31:32;;;;;;;6.13;1.30;;;;;;;;;;3354003;42;20227;-58
2022/07/20 06:33:58;;;;;;;5.05;1.30;;;;;;;;;;3353437;42;20100;-54
2022/07/20 06:36:24;;;;;;;7.35;1.50;;;;;;;;;;3356493;42;20140;-59
2022/07/20 06:38:50;;;;;;;6.63;1.50;;;;;;;;;;3354463;42;20110;-58
2022/07/20 06:41:16;;;;;;;6.17;1.30;;;;;;;;;;3354758;42;20132;-55
2022/07/20 06:43:42;;;;;;;5.60;1.52;;;;;;;;;;3356146;42;20123;-55
2022/07/20 06:46:08;;;;;;;3.28;1.00;;;;;;;;;;3355207;42;20673;-56
2022/07/20 06:48:36;;;;;;;4.70;1.23;;;;;;;;;;3349856;42;20678;-57
2022/07/20 06:51:03;;;;;;;6.00;1.40;;;;;;;;;;3354071;42;20085;-56
2022/07/20 06:53:29;;;;;;;5.22;1.52;;;;;;;;;;3352921;42;20569;-61
2022/07/20 06:55:55;;;;;;;5.72;1.27;;;;;;;;;;3352720;42;20567;-57
2022/07/20 06:58:21;;;;;;;4.47;1.47;;;;;;;;;;3353326;42;20088;-58
2022/07/20 07:00:46;;;;;;;6.97;1.30;;;;;;;;;;3353803;42;20154;-58
2022/07/20 07:03:12;;;;;;;4.20;1.30;;;;;;;;;;3352092;42;20128;-60
2022/07/20 07:05:38;;;;;;;4.78;1.17;;;;;;;;;;3353823;42;20088;-59
2022/07/20 07:08:05;;;;;;;3.43;0.93;;;;;;;;;;3353159;42;20093;-57
2022/07/20 07:10:31;;;;;;;4.15;1.30;;;;;;;;;;3356032;42;20088;-58
2022/07/20 07:12:56;;;;;;;5.07;1.40;;;;;;;;;;3342944;42;20186;-57
2022/07/20 07:15:22;;;;;;;4.75;1.45;;;;;;;;;;3353305;42;20099;-58
2022/07/20 07:17:48;;;;;;;3.73;1.23;;;;;;;;;;3352120;42;20092;-58
2022/07/20 07:20:14;;;;;;;6.32;1.27;;;;;;;;;;3353197;42;20098;-56
2022/07/20 07:22:40;;;;;;;4.03;1.27;;;;;;;;;;3352516;42;20092;-61
2022/07/20 07:25:07;;;;;;;4.30;1.30;;;;;;;;;;3351349;42;20143;-57
2022/07/20 07:27:33;;;;;;;4.30;1.20;;;;;;;;;;3352717;42;20316;-58
2022/07/20 07:29:59;;;;;;;6.38;1.45;;;;;;;;;;3354568;42;20080;-60
2022/07/20 07:32:25;;;;;;;6.03;1.48;;;;;;;;;;3348846;42;20178;-55
2022/07/20 07:34:51;;;;;;;6.87;1.33;;;;;;;;;;3355140;42;20084;-57
2022/07/20 07:37:17;;;;;;;4.80;1.30;;;;;;;;;;3352562;42;20311;-58
2022/07/20 07:39:43;;;;;;;4.88;1.20;;;;;;;;;;3351980;42;20088;-59
2022/07/20 07:42:08;;;;;;;5.60;1.25;;;;;;;;;;3346317;42;20107;-58
2022/07/20 07:44:34;;;;;;;4.40;1.40;;;;;;;;;;3355104;42;20092;-57
2022/07/20 07:47:00;;;;;;;4.00;1.30;;;;;;;;;;3351166;42;20632;-58
2022/07/20 07:49:27;;;;;;;4.55;1.33;;;;;;;;;;3353293;42;20093;-57
2022/07/20 07:51:52;;;;;;;5.40;1.27;;;;;;;;;;3354887;42;20139;-57
2022/07/20 07:54:18;;;;;;;4.93;1.30;;;;;;;;;;3352969;42;20238;-58
2022/07/20 07:56:44;;;;;;;4.80;1.30;;;;;;;;;;3354290;42;20558;-55
2022/07/20 07:59:10;;;;;;;4.03;1.20;;;;;;;;;;3353738;42;20138;-56
2022/07/20 08:01:36;;;;;;;3.63;1.00;;;;;;;;;;3354361;42;20143;-62
2022/07/20 08:04:03;;;;;;;4.23;1.00;;;;;;;;;;3352628;42;20687;-57
2022/07/20 08:06:29;;;;;;;3.80;1.10;;;;;;;;;;3343960;42;20100;-57
2022/07/20 08:08:57;;;;;;;5.07;1.20;;;;;;;;;;3355357;42;20098;-57
2022/07/20 08:11:23;;;;;;;4.20;1.38;;;;;;;;;;3352524;42;20533;-58
2022/07/20 08:13:49;;;;;;;3.80;1.25;;;;;;;;;;3352628;42;20158;-58
2022/07/20 08:16:15;;;;;;;5.07;1.27;;;;;;;;;;3348649;42;20144;-57
2022/07/20 08:18:41;;;;;;;5.18;1.23;;;;;;;;;;3356674;42;20096;-58
2022/07/20 08:21:07;;;;;;;4.45;1.20;;;;;;;;;;3354501;42;20561;-56
2022/07/20 08:23:33;;;;;;;6.27;1.43;;;;;;;;;;3351665;42;20103;-57
2022/07/20 08:25:59;;;;;;;4.83;1.40;;;;;;;;;;3353246;42;20268;-57
2022/07/20 08:28:25;;;;;;;5.95;1.30;;;;;;;;;;3351267;42;20567;-58
2022/07/20 08:30:52;;;;;;;3.63;1.20;;;;;;;;;;3348166;42;20084;-58
2022/07/20 08:33:18;;;;;;;4.45;1.10;;;;;;;;;;3350254;42;20103;-58
2022/07/20 08:35:44;;;;;;;4.37;1.20;;;;;;;;;;3352993;42;20630;-57
2022/07/20 08:38:10;;;;;;;3.47;1.10;;;;;;;;;;3348913;42;20089;-58
2022/07/20 08:40:36;;;;;;;4.80;1.30;;;;;;;;;;3346023;42;20103;-57
2022/07/20 08:43:02;;;;;;;3.75;1.00;;;;;;;;;;3349661;42;20112;-57
2022/07/20 08:45:28;;;;;;;6.67;1.10;;;;;;;;;;3345619;42;20618;-57
2022/07/20 08:47:56;;;;;;;4.40;1.30;;;;;;;;;;3341310;42;20097;-56
2022/07/20 08:50:27;;;;;;;3.85;1.00;;;;;;;;;;3350153;42;20100;-59
2022/07/20 08:52:53;;;;;;;4.68;1.00;;;;;;;;;;3342851;42;20788;-60
2022/07/20 08:55:19;;;;;;;4.72;1.08;;;;;;;;;;3362586;42;20877;-59
2022/07/20 08:57:46;;;;;;;3.80;1.00;;;;;;;;;;3354930;42;20146;-56
2022/07/20 09:00:13;;;;;;;4.57;1.13;;;;;;;;;;3347414;42;20186;-57
2022/07/20 09:02:49;;;;;;;4.50;1.10;;;;;;;;;;3354352;42;20820;-56
2022/07/20 09:05:15;;;;;;;4.45;1.20;;;;;;;;;;3358544;42;20143;-57
2022/07/20 09:07:45;;;;;;;3.27;0.90;;;;;;;;;;3353228;42;20191;-62
2022/07/20 09:10:20;;;;;;;3.88;1.00;;;;;;;;;;3353441;42;20644;-56
2022/07/20 09:13:13;;;;;;;5.95;1.23;;;;;;;;;;3353949;42;20657;-56
2022/07/20 09:15:40;;;;;;;3.95;0.93;;;;;;;;;;3358556;42;20092;-55
2022/07/20 09:18:14;;;;;;;4.55;1.23;;;;;;;;;;3352098;42;20107;-57
2022/07/20 09:21:03;;;;;;;3.40;1.00;;;;;;;;;;3357322;42;20106;-57
2022/07/20 09:23:33;;;;;;;4.15;1.10;;;;;;;;;;3353676;42;20175;-59
2022/07/20 09:26:00;;;;;;;4.97;1.10;;;;;;;;;;3356580;42;20166;-56
2022/07/20 09:28:52;;;;;;;3.75;0.98;;;;;;;;;;3357424;42;20096;-56
2022/07/20 09:31:33;;;;;;;3.60;1.20;;;;;;;;;;3345699;42;20159;-57
2022/07/20 09:34:12;;;;;;;4.20;1.13;;;;;;;;;;3345389;42;20522;-59
2022/07/20 09:36:43;;;;;;;4.80;1.00;;;;;;;;;;3344346;42;20092;-59
2022/07/20 09:39:19;;;;;;;3.35;1.00;;;;;;;;;;3354125;42;20112;-56
2022/07/20 09:41:56;;;;;;;3.63;1.10;;;;;;;;;;3355955;42;20092;-58
2022/07/20 09:44:40;;;;;;;5.32;1.20;;;;;;;;;;3354776;42;20084;-55
2022/07/20 09:47:12;;;;;;;5.27;1.30;;;;;;;;;;3355620;42;20126;-58
2022/07/20 09:49:40;;;;;;;6.07;1.10;;;;;;;;;;3353884;42;20142;-56
2022/07/20 09:52:08;;;;;;;3.67;1.00;;;;;;;;;;3357514;42;20131;-57
2022/07/20 09:54:34;;;;;;;4.32;1.02;;;;;;;;;;3351606;42;20200;-55
2022/07/20 09:57:00;;;;;;;4.13;1.10;;;;;;;;;;3353028;42;20088;-58
2022/07/20 09:59:26;;;;;;;4.13;1.03;;;;;;;;;;3346242;42;20100;-57
2022/07/20 10:01:53;;;;;;;4.78;1.20;;;;;;;;;;3344629;42;20476;-56
2022/07/20 10:04:19;;;;;;;3.75;1.00;;;;;;;;;;3352849;42;20084;-57
2022/07/20 10:06:50;;;;;;;4.45;1.17;;;;;;;;;;3349914;42;20107;-54
2022/07/20 10:09:17;;;;;;;4.70;1.70;;;;;;;;;;3352641;42;20762;-57
2022/07/20 10:11:43;;;;;;;4.10;1.10;;;;;;;;;;3353313;42;20467;-58
2022/07/20 10:14:09;;;;;;;3.90;1.10;;;;;;;;;;3354770;42;20130;-57
2022/07/20 10:16:42;;;;;;;4.97;1.10;;;;;;;;;;3352340;42;20084;-59
2022/07/20 10:19:10;;;;;;;4.32;1.10;;;;;;;;;;3343604;42;20120;-55
2022/07/20 10:21:43;;;;;;;4.73;1.10;;;;;;;;;;3355599;42;20194;-53
2022/07/20 10:24:27;;;;;;;3.13;0.95;;;;;;;;;;3349896;42;20100;-58
2022/07/20 10:27:06;;;;;;;3.75;1.10;;;;;;;;;;3353278;42;20140;-56
2022/07/20 10:29:33;;;;;;;4.55;1.05;;;;;;;;;;3352134;42;20551;-53
2022/07/20 10:32:25;;;;;;;3.58;1.10;;;;;;;;;;3349447;42;20099;-57
2022/07/20 10:34:59;;;;;;;5.83;1.00;;;;;;;;;;3354856;42;20096;-52
2022/07/20 10:37:41;;;;;;;3.97;1.10;;;;;;;;;;3351735;42;20180;-57
2022/07/20 10:40:13;;;;;;;4.20;1.10;;;;;;;;;;3345190;42;20096;-58
2022/07/20 10:43:12;;;;;;;4.18;1.10;;;;;;;;;;3355134;42;20104;-55
2022/07/20 10:45:38;;;;;;;3.85;1.10;;;;;;;;;;3353474;42;20141;-58
2022/07/20 10:48:14;;;;;;;4.00;0.90;;;;;;;;;;3343913;42;20874;-57
2022/07/20 10:50:45;;;;;;;3.85;1.00;;;;;;;;;;3351091;42;20210;-56
2022/07/20 10:53:11;;;;;;;4.45;1.10;;;;;;;;;;3351906;42;20802;-56
2022/07/20 10:55:36;;;;;;;4.30;1.02;;;;;;;;;;3351136;42;20853;-56
2022/07/20 10:58:04;;;;;;;4.83;1.03;;;;;;;;;;3351338;42;20104;-56
2022/07/20 11:00:31;;;;;;;4.20;1.00;;;;;;;;;;3346273;42;20519;-53
2022/07/20 11:02:58;;;;;;;3.55;1.17;;;;;;;;;;3343062;42;20176;-55
2022/07/20 11:05:24;;;;;;;5.13;1.20;;;;;;;;;;3356891;42;20516;-58
2022/07/20 11:07:50;;;;;;;3.95;1.10;;;;;;;;;;3352501;42;20606;-56
2022/07/20 11:10:34;;;;;;;6.10;1.37;;;;;;;;;;3353228;42;20193;-58
2022/07/20 11:13:04;;;;;;;3.90;1.20;;;;;;;;;;3351199;42;20257;-59
2022/07/20 11:15:58;;;;;;;5.03;1.20;;;;;;;;;;3350956;42;20176;-58
2022/07/20 11:18:25;;;;;;;3.80;1.13;;;;;;;;;;3334130;42;20701;-57
2022/07/20 11:20:57;;;;;;;3.40;1.00;;;;;;;;;;3349066;42;20089;-57
2022/07/20 11:23:27;;;;;;;3.67;1.10;;;;;;;;;;3354219;42;20236;-58
2022/07/20 11:26:00;;;;;;;4.15;1.00;;;;;;;;;;3355208;42;20669;-59
2022/07/20 11:28:28;;;;;;;4.82;0.98;;;;;;;;;;3356457;42;20080;-59
2022/07/20 11:30:54;;;;;;;6.03;1.20;;;;;;;;;;3345767;42;20216;-59
2022/07/20 11:33:23;;;;;;;4.60;1.00;;;;;;;;;;3340019;42;20101;-55
2022/07/20 11:35:49;;;;;;;4.47;1.30;;;;;;;;;;3353485;42;20175;-59
2022/07/20 11:38:16;;;;;;;3.80;1.00;;;;;;;;;;3342504;42;20621;-58
2022/07/20 11:40:54;;;;;;;5.07;1.10;;;;;;;;;;3343432;42;20092;-58
2022/07/20 11:43:20;;;;;;;6.68;1.30;;;;;;;;;;3341195;42;20089;-59
2022/07/20 11:45:46;;;;;;;7.32;1.10;;;;;;;;;;3351090;42;20103;-61
2022/07/20 11:48:21;;;;;;;3.40;1.00;;;;;;;;;;3352350;42;20370;-58
2022/07/20 11:50:47;;;;;;;6.03;1.20;;;;;;;;;;3348167;42;20091;-59
2022/07/20 11:53:26;;;;;;;5.00;1.00;;;;;;;;;;3353419;42;20076;-59
2022/07/20 11:55:53;;;;;;;4.80;1.10;;;;;;;;;;3353687;42;20498;-56
2022/07/20 11:58:27;;;;;;;3.97;1.20;;;;;;;;;;3352313;42;20634;-58
2022/07/20 12:00:53;;;;;;;5.35;1.25;;;;;;;;;;3359195;42;20170;-57
2022/07/20 12:03:22;;;;;;;4.70;1.33;;;;;;;;;;3345362;42;20091;-60
2022/07/20 12:05:48;;;;;;;3.85;1.30;;;;;;;;;;3360162;42;20570;-59
2022/07/20 12:08:14;;;;;;;5.43;1.10;;;;;;;;;;3359334;42;20594;-61
2022/07/20 12:10:44;;;;;;;3.67;1.07;;;;;;;;;;3359897;42;20347;-57
2022/07/20 12:13:10;;;;;;;3.65;1.10;;;;;;;;;;3351519;42;20088;-58
2022/07/20 12:15:36;;;;;;;6.85;1.08;;;;;;;;;;3359660;42;20096;-61
2022/07/20 12:18:02;;;;;;;7.10;1.20;;;;;;;;;;3360150;42;20080;-57
2022/07/20 12:20:28;;;;;;;5.73;1.20;;;;;;;;;;3351626;42;20226;-57
2022/07/20 12:22:58;;;;;;;3.65;1.08;;;;;;;;;;3359506;42;20188;-58
2022/07/20 12:25:38;;;;;;;4.20;1.30;;;;;;;;;;3359591;42;20126;-60
2022/07/20 12:28:04;;;;;;;4.78;1.15;;;;;;;;;;3359613;42;20092;-55
2022/07/20 12:30:36;;;;;;;4.25;1.00;;;;;;;;;;3349624;42;20555;-60
2022/07/20 12:33:11;;;;;;;3.90;1.10;;;;;;;;;;3358300;42;20115;-57
2022/07/20 12:35:39;;;;;;;5.00;1.10;;;;;;;;;;3348567;42;20115;-57
2022/07/20 12:38:05;;;;;;;4.68;1.38;;;;;;;;;;3361370;42;20124;-59
2022/07/20 12:40:41;;;;;;;4.78;1.30;;;;;;;;;;3351266;42;20096;-57
2022/07/20 12:43:35;;;;;;;3.80;1.20;;;;;;;;;;3361153;42;20102;-56
2022/07/20 12:46:07;;;;;;;5.20;1.20;;;;;;;;;;3360155;42;20606;-59
2022/07/20 12:48:34;;;;;;;4.13;1.20;;;;;;;;;;3363170;42;20092;-58
2022/07/20 12:51:00;;;;;;;4.50;1.17;;;;;;;;;;3360523;42;20100;-57
2022/07/20 12:53:28;;;;;;;4.70;1.40;;;;;;;;;;3359892;42;20158;-56
2022/07/20 12:55:54;;;;;;;4.45;1.30;;;;;;;;;;3359603;42;20085;-58
2022/07/20 12:58:20;;;;;;;8.07;1.63;;;;;;;;;;3351027;42;20143;-59
2022/07/20 13:00:46;;;;;;;3.88;1.20;;;;;;;;;;3361459;42;20517;-57
2022/07/20 13:03:12;;;;;;;4.32;1.20;;;;;;;;;;3355124;42;20597;-58
2022/07/20 13:05:40;;;;;;;3.95;1.10;;;;;;;;;;3348330;42;20665;-58
2022/07/20 13:08:06;;;;;;;4.90;1.40;;;;;;;;;;3352995;42;20115;-57
2022/07/20 13:10:32;;;;;;;4.07;1.40;;;;;;;;;;3346011;42;20099;-55
2022/07/20 13:12:58;;;;;;;4.95;1.10;;;;;;;;;;3357503;42;20100;-60
2022/07/20 13:15:24;;;;;;;6.00;1.42;;;;;;;;;;3353650;42;20178;-57
2022/07/20 13:17:52;;;;;;;4.28;1.33;;;;;;;;;;3352564;42;20089;-57
2022/07/20 13:20:18;;;;;;;5.90;1.50;;;;;;;;;;3351064;42;20136;-60
2022/07/20 13:22:44;;;;;;;8.75;1.48;;;;;;;;;;3351362;42;20131;-61
2022/07/20 13:25:10;;;;;;;4.20;1.20;;;;;;;;;;3349858;42;20093;-59
2022/07/20 13:27:36;;;;;;;4.00;1.20;;;;;;;;;;3347859;42;20111;-58
2022/07/20 13:30:03;;;;;;;6.40;1.47;;;;;;;;;;3341322;42;20108;-58
2022/07/20 13:32:30;;;;;;;5.63;1.60;;;;;;;;;;3353935;42;20572;-59
2022/07/20 13:34:55;;;;;;;6.03;1.33;;;;;;;;;;3352491;42;20574;-59
2022/07/20 13:37:21;;;;;;;5.43;1.40;;;;;;;;;;3354094;42;20094;-59
2022/07/20 13:39:47;;;;;;;4.50;1.60;;;;;;;;;;3352502;42;20136;-56
2022/07/20 13:42:13;;;;;;;5.07;1.30;;;;;;;;;;3354736;42;20399;-57
2022/07/20 13:44:39;;;;;;;4.55;1.58;;;;;;;;;;3336638;42;20107;-58
2022/07/20 13:47:06;;;;;;;4.28;1.50;;;;;;;;;;3352180;42;20096;-59
2022/07/20 13:49:32;;;;;;;4.82;1.30;;;;;;;;;;3344237;42;20555;-59
2022/07/20 13:51:58;;;;;;;5.03;1.30;;;;;;;;;;3356336;42;20108;-56
2022/07/20 13:54:24;;;;;;;4.68;1.10;;;;;;;;;;3353924;42;20097;-57
2022/07/20 13:56:50;;;;;;;6.22;1.40;;;;;;;;;;3354068;42;20140;-58
2022/07/20 13:59:16;;;;;;;4.20;1.30;;;;;;;;;;3350883;42;20087;-57
2022/07/20 14:01:42;;;;;;;4.83;1.10;;;;;;;;;;3361472;42;20107;-57
2022/07/20 14:04:12;;;;;;;5.22;1.60;;;;;;;;;;3359162;42;20099;-58
2022/07/20 14:06:39;;;;;;;3.80;1.20;;;;;;;;;;3343694;42;20143;-57
2022/07/20 14:09:05;;;;;;;4.40;1.20;;;;;;;;;;3353017;42;20111;-58
2022/07/20 14:11:31;;;;;;;3.27;1.00;;;;;;;;;;3352603;42;20103;-58
2022/07/20 14:13:57;;;;;;;4.65;1.10;;;;;;;;;;3351407;42;20083;-58
2022/07/20 14:16:23;;;;;;;3.92;1.10;;;;;;;;;;3362004;42;20089;-56
2022/07/20 14:18:49;;;;;;;3.88;1.08;;;;;;;;;;3360364;42;20080;-56
2022/07/20 14:21:15;;;;;;;4.00;1.13;;;;;;;;;;3350010;42;20095;-58
2022/07/20 14:23:43;;;;;;;4.57;1.00;;;;;;;;;;3350724;42;20096;-57
2022/07/20 14:26:10;;;;;;;4.70;1.20;;;;;;;;;;3352447;42;20099;-57
2022/07/20 14:28:36;;;;;;;5.10;1.20;;;;;;;;;;3353527;42;20582;-59
2022/07/20 14:31:02;;;;;;;4.53;1.20;;;;;;;;;;3354523;42;20108;-57
2022/07/20 14:33:28;;;;;;;5.70;1.30;;;;;;;;;;3355198;42;20143;-57
2022/07/20 14:35:54;;;;;;;4.70;1.20;;;;;;;;;;3344584;42;20151;-57
2022/07/20 14:38:20;;;;;;;4.20;1.17;;;;;;;;;;3353630;42;20574;-58
2022/07/20 14:40:46;;;;;;;4.80;1.23;;;;;;;;;;3346296;42;20101;-58
2022/07/20 14:43:12;;;;;;;4.72;1.50;;;;;;;;;;3352687;42;20080;-57
2022/07/20 14:45:38;;;;;;;7.03;1.50;;;;;;;;;;3350082;42;20090;-58
2022/07/20 14:48:04;;;;;;;4.63;1.38;;;;;;;;;;3344860;42;20096;-60
2022/07/20 14:50:30;;;;;;;5.22;1.40;;;;;;;;;;3354141;42;20163;-56